Time;durP1;ratioP1;P1;durP2;ratioP2;P2;SDS_P1;SDS_P2;PMS_P1;PMS_P2;Temp;Humidity;BMP_temperature;BMP_pressure;BME280_temperature;BME280_humidity;BME280_pressure;Samples;Min_cycle;Max_cycle;Signal;HPM_P1;HPM_P2
2022/08/20 00:00:36;;;;;;;6.53;5.93;;;;;;;-141.48;100.00;69781.59;5223713;28;20029;-71
2022/08/20 00:03:10;;;;;;;5.57;4.85;;;;;;;-141.48;100.00;69781.59;5222960;28;20016;-72
2022/08/20 00:05:44;;;;;;;5.43;5.03;;;;;;;-141.48;100.00;69781.59;5205218;28;20127;-71
2022/08/20 00:08:15;;;;;;;5.57;5.10;;;;;;;-141.48;100.00;69781.59;5222969;28;20074;-71
2022/08/20 00:10:47;;;;;;;5.93;5.47;;;;;;;-141.48;100.00;69781.59;5205313;28;20025;-71
2022/08/20 00:13:22;;;;;;;10.90;7.18;;;;;;;-141.48;100.00;69781.59;5204890;28;20379;-72
2022/08/20 00:15:53;;;;;;;7.80;7.28;;;;;;;-141.48;100.00;69781.59;5223235;28;20114;-71
2022/08/20 00:18:24;;;;;;;7.65;6.97;;;;;;;-141.48;100.00;69781.59;5223075;28;20403;-72
2022/08/20 00:20:55;;;;;;;4.93;4.63;;;;;;;-141.48;100.00;69781.59;5223348;28;20028;-70
2022/08/20 00:23:26;;;;;;;8.20;6.00;;;;;;;-141.48;100.00;69781.59;5204863;28;20116;-71
2022/08/20 00:25:56;;;;;;;8.25;6.70;;;;;;;-141.48;100.00;69781.59;5223126;28;20231;-71
2022/08/20 00:28:27;;;;;;;7.93;7.28;;;;;;;-141.48;100.00;69781.59;5205335;28;20485;-71
2022/08/20 00:30:58;;;;;;;6.88;6.18;;;;;;;-141.48;100.00;69781.59;5222795;28;20064;-71
2022/08/20 00:33:28;;;;;;;6.30;5.90;;;;;;;-141.48;100.00;69781.59;5222788;28;20107;-71
2022/08/20 00:36:05;;;;;;;7.60;7.00;;;;;;;-141.48;100.00;69781.59;5222902;28;20112;-69
2022/08/20 00:38:40;;;;;;;9.63;7.20;;;;;;;-141.48;100.00;69781.59;5205025;28;20041;-70
2022/08/20 00:41:16;;;;;;;7.60;7.10;;;;;;;-141.48;100.00;69781.59;5223402;28;20032;-71
2022/08/20 00:44:02;;;;;;;9.07;7.80;;;;;;;-141.48;100.00;69781.59;5222581;28;20096;-71
2022/08/20 00:46:33;;;;;;;14.93;6.60;;;;;;;-141.48;100.00;69781.59;5205265;28;20075;-71
2022/08/20 00:49:07;;;;;;;9.65;7.10;;;;;;;-141.48;100.00;69781.59;5223254;28;20025;-71
2022/08/20 00:51:40;;;;;;;7.70;7.00;;;;;;;-141.48;100.00;69781.59;5222872;28;20025;-71
2022/08/20 00:54:22;;;;;;;8.77;7.97;;;;;;;-141.48;100.00;69781.59;5204922;28;20345;-71
2022/08/20 00:57:02;;;;;;;9.07;8.32;;;;;;;-141.48;100.00;69781.59;5205381;28;20025;-71
2022/08/20 00:59:36;;;;;;;8.05;7.35;;;;;;;-141.48;100.00;69781.59;5205227;28;20095;-70
2022/08/20 01:02:10;;;;;;;8.63;7.82;;;;;;;-141.48;100.00;69781.59;5208638;28;20025;-70
2022/08/20 01:04:45;;;;;;;9.07;8.30;;;;;;;-141.48;100.00;69781.59;5226611;28;20025;-71
2022/08/20 01:07:19;;;;;;;10.40;9.60;;;;;;;-141.48;100.00;69781.59;5227313;28;20052;-70
2022/08/20 01:09:49;;;;;;;11.43;8.25;;;;;;;-141.48;100.00;69781.59;5208904;28;20064;-70
2022/08/20 01:12:22;;;;;;;10.70;10.00;;;;;;;-141.48;100.00;69781.59;5227519;28;20017;-70
2022/08/20 01:14:54;;;;;;;9.63;8.98;;;;;;;-141.48;100.00;69781.59;5226757;28;20059;-70
2022/08/20 01:17:27;;;;;;;10.07;8.93;;;;;;;-141.48;100.00;69781.59;5227059;28;20437;-71
2022/08/20 01:20:09;;;;;;;12.93;11.73;;;;;;;-141.48;100.00;69781.59;5209005;28;20021;-71
2022/08/20 01:26:12;;;;;;;10.48;9.63;;;;;;;-141.48;100.00;69781.59;5227452;28;20103;-70
2022/08/20 01:31:20;;;;;;;10.38;9.38;;;;;;;-141.48;100.00;69781.59;5246188;22;20040;-70
2022/08/20 01:33:52;;;;;;;10.75;9.90;;;;;;;-141.48;100.00;69781.59;5246291;28;20036;-73
2022/08/20 01:36:29;;;;;;;9.57;8.57;;;;;;;-141.48;100.00;69781.59;5247904;28;20047;-70
2022/08/20 01:39:00;;;;;;;20.75;10.90;;;;;;;-141.48;100.00;69781.59;5229011;28;20029;-70
2022/08/20 01:42:03;;;;;;;9.07;8.45;;;;;;;-141.48;100.00;69781.59;5229472;28;20031;-74
2022/08/20 01:44:36;;;;;;;10.25;9.02;;;;;;;-141.48;100.00;69781.59;5246914;28;20107;-72
2022/08/20 01:47:21;;;;;;;10.93;10.05;;;;;;;-141.48;100.00;69781.59;5246812;28;20091;-75
2022/08/20 01:50:01;;;;;;;8.98;8.25;;;;;;;-141.48;100.00;69781.59;5229676;28;20056;-71
2022/08/20 01:53:12;;;;;;;10.48;8.85;;;;;;;-141.48;100.00;69781.59;5228943;28;20465;-70
2022/08/20 01:55:43;;;;;;;9.15;8.25;;;;;;;-141.48;100.00;69781.59;5226156;28;20121;-69
2022/08/20 01:58:13;;;;;;;11.35;9.57;;;;;;;-141.48;100.00;69781.59;5245908;28;20032;-69
2022/08/20 02:00:44;;;;;;;9.38;8.73;;;;;;;-141.48;100.00;69781.59;5227657;28;20051;-70
2022/08/20 02:03:15;;;;;;;11.40;10.25;;;;;;;-141.48;100.00;69781.59;5245037;28;20474;-70
2022/08/20 02:05:46;;;;;;;11.60;10.68;;;;;;;-141.48;100.00;69781.59;5227046;28;20016;-69
2022/08/20 02:08:16;;;;;;;12.90;9.73;;;;;;;-141.48;100.00;69781.59;5246880;28;20020;-73
2022/08/20 02:10:47;;;;;;;11.95;9.88;;;;;;;-141.48;100.00;69781.59;5246757;28;20394;-72
2022/08/20 02:13:18;;;;;;;10.00;9.20;;;;;;;-141.48;100.00;69781.59;5250151;28;20112;-69
2022/08/20 02:15:48;;;;;;;11.40;10.05;;;;;;;-141.48;100.00;69781.59;5246790;28;20142;-73
2022/08/20 02:18:19;;;;;;;10.45;9.45;;;;;;;-141.48;100.00;69781.59;5248882;28;20107;-73
2022/08/20 02:20:51;;;;;;;9.80;8.90;;;;;;;-141.48;100.00;69781.59;5284187;22;20024;-90
2022/08/20 02:23:21;;;;;;;11.65;10.43;;;;;;;-141.48;100.00;69781.59;5272951;28;20027;-91
2022/08/20 02:25:52;;;;;;;12.18;11.02;;;;;;;-141.48;100.00;69781.59;5266922;28;20035;-90
2022/08/20 02:28:22;;;;;;;13.25;9.98;;;;;;;-141.48;100.00;69781.59;5266487;28;20047;-91
2022/08/20 02:30:54;;;;;;;12.77;8.73;;;;;;;-141.48;100.00;69781.59;5282717;28;20032;-91
2022/08/20 02:33:24;;;;;;;10.80;9.98;;;;;;;-141.48;100.00;69781.59;5262915;28;20079;-90
2022/08/20 02:35:55;;;;;;;13.52;10.43;;;;;;;-141.48;100.00;69781.59;5282592;28;20085;-90
2022/08/20 02:38:26;;;;;;;11.65;10.68;;;;;;;-141.48;100.00;69781.59;5281512;28;20080;-91
2022/08/20 02:40:56;;;;;;;13.50;10.70;;;;;;;-141.48;100.00;69781.59;5263259;28;20024;-90
2022/08/20 02:43:27;;;;;;;12.02;10.20;;;;;;;-141.48;100.00;69781.59;5254837;28;20553;-91
2022/08/20 02:45:58;;;;;;;10.80;9.73;;;;;;;-141.48;100.00;69781.59;5251653;28;20363;-90
2022/08/20 02:48:30;;;;;;;9.65;8.80;;;;;;;-141.48;100.00;69781.59;5252313;28;20062;-90
2022/08/20 02:51:04;;;;;;;11.35;10.23;;;;;;;-141.48;100.00;69781.59;5304096;22;20043;-91
2022/08/20 02:53:37;;;;;;;10.82;9.88;;;;;;;-141.48;100.00;69781.59;5296363;28;20015;-89
2022/08/20 02:56:10;;;;;;;9.10;8.32;;;;;;;-141.48;100.00;69781.59;5280741;28;20020;-89
2022/08/20 02:58:40;;;;;;;12.23;9.85;;;;;;;-141.48;100.00;69781.59;5299056;28;20027;-89
2022/08/20 03:01:14;;;;;;;10.90;9.60;;;;;;;-141.48;100.00;69781.59;5292768;28;20085;-89
2022/08/20 03:03:45;;;;;;;9.93;8.55;;;;;;;-141.48;100.00;69781.59;5259452;28;20024;-89
2022/08/20 03:06:16;;;;;;;10.43;9.27;;;;;;;-141.48;100.00;69781.59;5278145;28;20066;-89
2022/08/20 03:08:47;;;;;;;18.88;11.02;;;;;;;-141.48;100.00;69781.59;5278000;28;20031;-89
2022/08/20 03:11:17;;;;;;;13.63;8.90;;;;;;;-141.48;100.00;69781.59;5278262;28;20070;-91
2022/08/20 03:13:48;;;;;;;11.27;10.57;;;;;;;-141.48;100.00;69781.59;5278006;28;20031;-91
2022/08/20 03:16:18;;;;;;;13.23;11.77;;;;;;;-141.48;100.00;69781.59;5277650;28;20031;-89
2022/08/20 03:18:49;;;;;;;9.07;8.25;;;;;;;-141.48;100.00;69781.59;5260438;28;20024;-89
2022/08/20 03:21:19;;;;;;;12.07;10.82;;;;;;;-141.48;100.00;69781.59;5279064;28;20024;-90
2022/08/20 03:23:50;;;;;;;12.85;11.35;;;;;;;-141.48;100.00;69781.59;5259241;28;20077;-89
2022/08/20 03:26:20;;;;;;;16.95;11.32;;;;;;;-141.48;100.00;69781.59;5279042;28;20028;-90
2022/08/20 03:28:51;;;;;;;14.18;9.88;;;;;;;-141.48;100.00;69781.59;5261265;28;20054;-90
2022/08/20 03:31:21;;;;;;;18.20;10.70;;;;;;;-141.48;100.00;69781.59;5260959;28;20107;-91
2022/08/20 03:33:52;;;;;;;10.27;7.80;;;;;;;-141.48;100.00;69781.59;5259275;28;20024;-90
2022/08/20 03:36:24;;;;;;;10.32;9.18;;;;;;;-141.48;100.00;69781.59;5277419;28;20031;-90
2022/08/20 03:39:02;;;;;;;13.73;10.25;;;;;;;-141.48;100.00;69781.59;5260012;28;20024;-91
2022/08/20 03:41:33;;;;;;;16.77;10.30;;;;;;;-141.48;100.00;69781.59;5277457;28;20036;-91
2022/08/20 03:44:06;;;;;;;11.02;9.75;;;;;;;-141.48;100.00;69781.59;5277534;28;20043;-92
2022/08/20 03:46:37;;;;;;;19.17;9.25;;;;;;;-141.48;100.00;69781.59;5260026;28;20077;-91
2022/08/20 03:49:08;;;;;;;11.25;8.93;;;;;;;-141.48;100.00;69781.59;5259451;28;20020;-91
2022/08/20 03:51:39;;;;;;;15.30;8.07;;;;;;;-141.48;100.00;69781.59;5277569;28;20038;-91
2022/08/20 03:54:09;;;;;;;13.88;10.32;;;;;;;-141.48;100.00;69781.59;5277912;28;20024;-91
2022/08/20 03:56:40;;;;;;;18.45;9.18;;;;;;;-141.48;100.00;69781.59;5260024;28;20020;-91
2022/08/20 03:59:10;;;;;;;14.23;7.68;;;;;;;-141.48;100.00;69781.59;5277869;28;20072;-91
2022/08/20 04:01:41;;;;;;;9.65;8.65;;;;;;;-141.48;100.00;69781.59;5277206;28;20028;-91
2022/08/20 04:04:11;;;;;;;8.82;7.47;;;;;;;-141.48;100.00;69781.59;5259537;28;20024;-90
2022/08/20 04:06:42;;;;;;;7.93;7.40;;;;;;;-141.48;100.00;69781.59;5259958;28;20022;-91
2022/08/20 04:09:13;;;;;;;9.32;8.25;;;;;;;-141.48;100.00;69781.59;5277131;28;20039;-89
2022/08/20 04:11:44;;;;;;;10.15;9.45;;;;;;;-141.48;100.00;69781.59;5258684;28;20049;-89
2022/08/20 04:14:15;;;;;;;20.13;9.23;;;;;;;-141.48;100.00;69781.59;5258227;28;20083;-90
2022/08/20 04:16:45;;;;;;;11.68;8.07;;;;;;;-141.48;100.00;69781.59;5258629;28;20047;-91
2022/08/20 04:19:16;;;;;;;14.15;9.48;;;;;;;-141.48;100.00;69781.59;5276250;28;20079;-90
2022/08/20 04:21:47;;;;;;;14.60;7.07;;;;;;;-141.48;100.00;69781.59;5258006;28;20114;-91
2022/08/20 04:24:17;;;;;;;8.38;7.57;;;;;;;-141.48;100.00;69781.59;5276618;28;20023;-90
2022/08/20 04:26:48;;;;;;;13.13;8.57;;;;;;;-141.48;100.00;69781.59;5277165;28;20024;-91
2022/08/20 04:29:19;;;;;;;12.75;8.30;;;;;;;-141.48;100.00;69781.59;5258291;28;20038;-90
2022/08/20 04:31:49;;;;;;;10.85;9.48;;;;;;;-141.48;100.00;69781.59;5276454;28;20027;-91
2022/08/20 04:34:20;;;;;;;7.57;7.07;;;;;;;-141.48;100.00;69781.59;5275903;28;20029;-91
2022/08/20 04:36:51;;;;;;;11.30;8.15;;;;;;;-141.48;100.00;69781.59;5278287;28;20036;-94
2022/08/20 04:39:22;;;;;;;9.27;8.50;;;;;;;-141.48;100.00;69781.59;5277866;28;20016;-91
2022/08/20 04:41:52;;;;;;;10.25;7.90;;;;;;;-141.48;100.00;69781.59;5277717;28;20050;-89
2022/08/20 04:44:23;;;;;;;13.10;8.60;;;;;;;-141.48;100.00;69781.59;5258118;28;20023;-91
2022/08/20 04:46:54;;;;;;;8.25;7.50;;;;;;;-141.48;100.00;69781.59;5288023;28;20016;-92
2022/08/20 04:49:25;;;;;;;16.23;9.27;;;;;;;-141.48;100.00;69781.59;5272048;28;20134;-89
2022/08/20 04:51:56;;;;;;;10.82;9.82;;;;;;;-141.48;100.00;69781.59;5280296;28;20024;-92
2022/08/20 04:54:26;;;;;;;14.80;7.93;;;;;;;-141.48;100.00;69781.59;5280374;28;20522;-91
2022/08/20 04:57:00;;;;;;;17.27;9.40;;;;;;;-141.48;100.00;69781.59;5298456;28;20027;-90
2022/08/20 04:59:33;;;;;;;11.68;9.40;;;;;;;-141.48;100.00;69781.59;5280386;28;20023;-93
2022/08/20 05:02:04;;;;;;;14.52;8.77;;;;;;;-141.48;100.00;69781.59;5300319;28;20020;-93
2022/08/20 05:04:36;;;;;;;11.77;10.52;;;;;;;-141.48;100.00;69781.59;5299382;28;20560;-91
2022/08/20 05:07:10;;;;;;;17.23;9.25;;;;;;;-141.48;100.00;69781.59;5300134;28;20059;-92
2022/08/20 05:09:41;;;;;;;14.68;9.38;;;;;;;-141.48;100.00;69781.59;5298816;28;20074;-91
2022/08/20 05:12:16;;;;;;;16.00;9.50;;;;;;;-141.48;100.00;69781.59;5299323;28;20028;-92
2022/08/20 05:14:47;;;;;;;15.35;9.40;;;;;;;-141.48;100.00;69781.59;5280819;28;20037;-92
2022/08/20 05:17:17;;;;;;;25.65;11.73;;;;;;;-141.48;100.00;69781.59;5299307;28;20062;-93
2022/08/20 05:19:50;;;;;;;15.40;8.95;;;;;;;-141.48;100.00;69781.59;5298527;28;20027;-91
2022/08/20 05:22:21;;;;;;;15.35;10.10;;;;;;;-141.48;100.00;69781.59;5278370;28;20042;-91
2022/08/20 05:24:52;;;;;;;20.45;11.57;;;;;;;-141.48;100.00;69781.59;5297911;28;20075;-91
2022/08/20 05:27:25;;;;;;;13.27;7.93;;;;;;;-141.48;100.00;69781.59;5281443;28;20073;-90
2022/08/20 05:30:04;;;;;;;11.52;8.98;;;;;;;-141.48;100.00;69781.59;5281239;28;20035;-89
2022/08/20 05:32:38;;;;;;;11.75;8.75;;;;;;;-141.48;100.00;69781.59;5280061;28;20027;-91
2022/08/20 05:35:09;;;;;;;17.48;10.70;;;;;;;-141.48;100.00;69781.59;5281543;28;20046;-90
2022/08/20 05:37:40;;;;;;;21.15;10.45;;;;;;;-141.48;100.00;69781.59;5298046;28;20026;-89
2022/08/20 05:40:13;;;;;;;18.20;9.45;;;;;;;-141.48;100.00;69781.59;5288538;28;20020;-88
2022/08/20 05:42:43;;;;;;;11.35;10.25;;;;;;;-141.48;100.00;69781.59;5275534;28;20073;-90
2022/08/20 05:45:15;;;;;;;16.58;10.05;;;;;;;-141.48;100.00;69781.59;5278569;28;20471;-89
2022/08/20 05:47:47;;;;;;;12.15;8.98;;;;;;;-141.48;100.00;69781.59;5262734;28;20110;-90
2022/08/20 05:50:17;;;;;;;15.70;9.90;;;;;;;-141.48;100.00;69781.59;5256852;22;20121;-67
2022/08/20 05:52:48;;;;;;;18.48;12.55;;;;;;;-141.48;100.00;69781.59;5243422;28;20019;-66
2022/08/20 05:55:18;;;;;;;12.15;9.52;;;;;;;-141.48;100.00;69781.59;5268180;28;20069;-67
2022/08/20 05:57:55;;;;;;;9.38;8.35;;;;;;;-141.48;100.00;69781.59;5258340;28;20056;-70
2022/08/20 06:00:27;;;;;;;14.30;8.77;;;;;;;-141.48;100.00;69781.59;5247490;28;20024;-67
2022/08/20 06:05:47;;;;;;;11.40;9.77;;;;;;;-141.48;100.00;69781.59;5226833;28;20102;-66
2022/08/20 06:08:17;;;;;;;25.33;11.60;;;;;;;-141.48;100.00;69781.59;5226461;28;20017;-67
2022/08/20 06:10:47;;;;;;;11.70;9.35;;;;;;;-141.48;100.00;69781.59;5226599;28;20032;-70
2022/08/20 06:13:18;;;;;;;15.90;10.82;;;;;;;-141.48;100.00;69781.59;5226006;28;20086;-67
2022/08/20 06:15:49;;;;;;;12.00;8.85;;;;;;;-141.48;100.00;69781.59;5226091;28;20025;-67
2022/08/20 06:18:20;;;;;;;13.13;11.18;;;;;;;-141.48;100.00;69781.59;5226596;28;20021;-66
2022/08/20 06:20:50;;;;;;;17.80;11.82;;;;;;;-141.48;100.00;69781.59;5226091;28;20545;-69
2022/08/20 06:23:24;;;;;;;14.30;11.40;;;;;;;-141.48;100.00;69781.59;5226307;28;20025;-66
2022/08/20 06:25:54;;;;;;;19.42;9.60;;;;;;;-141.48;100.00;69781.59;5208344;28;20215;-66
2022/08/20 06:28:25;;;;;;;20.25;8.27;;;;;;;-141.48;100.00;69781.59;5225870;28;20021;-69
2022/08/20 06:30:55;;;;;;;14.75;10.95;;;;;;;-141.48;100.00;69781.59;5224354;28;20023;-66
2022/08/20 06:33:25;;;;;;;8.93;8.05;;;;;;;-141.48;100.00;69781.59;5225469;28;20032;-66
2022/08/20 06:35:56;;;;;;;10.52;9.48;;;;;;;-141.48;100.00;69781.59;5226605;28;20025;-66
2022/08/20 06:38:26;;;;;;;11.93;10.27;;;;;;;-141.48;100.00;69781.59;5226229;28;20024;-66
2022/08/20 06:40:58;;;;;;;15.68;10.70;;;;;;;-141.48;100.00;69781.59;5226344;28;20476;-67
2022/08/20 06:43:30;;;;;;;15.93;9.88;;;;;;;-141.48;100.00;69781.59;5225963;28;20052;-67
2022/08/20 06:46:01;;;;;;;12.10;10.90;;;;;;;-141.48;100.00;69781.59;5226486;28;20127;-66
2022/08/20 06:48:31;;;;;;;16.13;11.27;;;;;;;-141.48;100.00;69781.59;5226531;28;20131;-67
2022/08/20 06:51:01;;;;;;;22.30;14.27;;;;;;;-141.48;100.00;69781.59;5226536;28;20032;-68
2022/08/20 06:53:32;;;;;;;17.52;12.68;;;;;;;-141.48;100.00;69781.59;5225744;28;20021;-68
2022/08/20 06:56:03;;;;;;;16.90;12.27;;;;;;;-141.48;100.00;69781.59;5224987;28;20043;-68
2022/08/20 06:58:33;;;;;;;18.23;13.77;;;;;;;-141.48;100.00;69781.59;5207936;28;20036;-67
2022/08/20 07:01:09;;;;;;;13.57;11.90;;;;;;;-141.48;100.00;69781.59;5208625;28;20028;-67
2022/08/20 07:03:41;;;;;;;15.77;10.75;;;;;;;-141.48;100.00;69781.59;5225531;28;20442;-67
2022/08/20 07:06:11;;;;;;;15.52;11.50;;;;;;;-141.48;100.00;69781.59;5225955;28;20025;-67
2022/08/20 07:08:42;;;;;;;13.38;12.32;;;;;;;-141.48;100.00;69781.59;5207848;28;20032;-66
2022/08/20 07:11:13;;;;;;;15.55;11.15;;;;;;;-141.48;100.00;69781.59;5225588;28;20032;-68
2022/08/20 07:13:44;;;;;;;21.63;14.73;;;;;;;-141.48;100.00;69781.59;5225155;28;20485;-67
2022/08/20 07:16:15;;;;;;;25.10;13.68;;;;;;;-141.48;100.00;69781.59;5208157;28;20506;-67
2022/08/20 07:18:45;;;;;;;20.17;14.85;;;;;;;-141.48;100.00;69781.59;5225654;28;20047;-69
2022/08/20 07:21:16;;;;;;;17.30;13.60;;;;;;;-141.48;100.00;69781.59;5225467;28;20024;-68
2022/08/20 07:23:48;;;;;;;25.92;16.80;;;;;;;-141.48;100.00;69781.59;5207055;28;20017;-68
2022/08/20 07:26:18;;;;;;;18.35;16.13;;;;;;;-141.48;100.00;69781.59;5225763;28;20025;-68
2022/08/20 07:28:49;;;;;;;38.67;16.10;;;;;;;-141.48;100.00;69781.59;5225405;28;20027;-67
2022/08/20 07:34:10;;;;;;;26.88;21.33;;;;;;;-141.48;100.00;69781.59;5224758;28;20032;-67
2022/08/20 07:36:40;;;;;;;26.90;19.05;;;;;;;-141.48;100.00;69781.59;5225252;28;20028;-69
2022/08/20 07:39:11;;;;;;;23.75;20.30;;;;;;;-141.48;100.00;69781.59;5206869;28;20024;-68
2022/08/20 07:41:41;;;;;;;21.85;17.52;;;;;;;-141.48;100.00;69781.59;5206967;28;20013;-67
2022/08/20 07:44:12;;;;;;;24.35;14.02;;;;;;;-141.48;100.00;69781.59;5224691;28;20108;-67
2022/08/20 07:46:42;;;;;;;15.35;13.77;;;;;;;-141.48;100.00;69781.59;5225272;28;20512;-68
2022/08/20 07:49:13;;;;;;;19.35;15.52;;;;;;;-141.48;100.00;69781.59;5224717;28;20043;-69
2022/08/20 07:51:43;;;;;;;25.42;17.95;;;;;;;-141.48;100.00;69781.59;5225064;28;20055;-69
2022/08/20 07:54:13;;;;;;;25.73;14.95;;;;;;;-141.48;100.00;69781.59;5224379;28;20380;-68
2022/08/20 07:56:44;;;;;;;22.08;17.33;;;;;;;-141.48;100.00;69781.59;5224373;28;20366;-68
2022/08/20 07:59:14;;;;;;;28.42;21.67;;;;;;;-141.48;100.00;69781.59;5224449;28;20027;-68
2022/08/20 08:01:45;;;;;;;20.73;18.83;;;;;;;-141.48;100.00;69781.59;5224753;28;20021;-67
2022/08/20 08:04:15;;;;;;;24.17;19.42;;;;;;;-141.48;100.00;69781.59;5224049;28;20025;-69
2022/08/20 08:06:45;;;;;;;25.90;18.33;;;;;;;-141.48;100.00;69781.59;5224611;28;20439;-67
2022/08/20 08:09:16;;;;;;;20.08;14.20;;;;;;;-141.48;100.00;69781.59;5223407;28;20145;-69
2022/08/20 08:11:49;;;;;;;17.58;15.18;;;;;;;-141.48;100.00;69781.59;5224250;28;20037;-68
2022/08/20 08:14:25;;;;;;;22.42;19.20;;;;;;;-141.48;100.00;69781.59;5223799;28;20044;-67
2022/08/20 08:16:58;;;;;;;20.60;17.02;;;;;;;-141.48;100.00;69781.59;5206555;28;20021;-66
2022/08/20 08:19:35;;;;;;;22.30;17.55;;;;;;;-141.48;100.00;69781.59;5224455;28;20031;-69
2022/08/20 08:22:11;;;;;;;23.55;21.10;;;;;;;-141.48;100.00;69781.59;5207018;28;20025;-67
2022/08/20 08:24:43;;;;;;;21.70;18.15;;;;;;;-141.48;100.00;69781.59;5223555;28;20037;-68
2022/08/20 08:27:17;;;;;;;20.80;18.27;;;;;;;-141.48;100.00;69781.59;5224071;28;20111;-67
2022/08/20 08:29:48;;;;;;;23.58;21.10;;;;;;;-141.48;100.00;69781.59;5224052;28;20021;-68
2022/08/20 08:32:18;;;;;;;23.25;18.08;;;;;;;-141.48;100.00;69781.59;5224050;28;20028;-67
2022/08/20 08:34:49;;;;;;;20.70;18.17;;;;;;;-141.48;100.00;69781.59;5223566;28;20393;-67
2022/08/20 08:37:20;;;;;;;20.05;18.17;;;;;;;-141.48;100.00;69781.59;5206086;28;20025;-70
2022/08/20 08:39:50;;;;;;;27.85;15.80;;;;;;;-141.48;100.00;69781.59;5224064;28;20032;-68
2022/08/20 08:42:42;;;;;;;19.48;17.60;;;;;;;-141.48;100.00;69781.59;5224254;28;20461;-68
2022/08/20 08:45:17;;;;;;;18.08;16.17;;;;;;;-141.48;100.00;69781.59;5223907;28;20116;-67
2022/08/20 08:47:48;;;;;;;19.42;15.68;;;;;;;-141.48;100.00;69781.59;5224507;28;20021;-68
2022/08/20 08:50:27;;;;;;;17.23;15.52;;;;;;;-141.48;100.00;69781.59;5224518;28;20032;-68
2022/08/20 08:52:59;;;;;;;15.30;14.00;;;;;;;-141.48;100.00;69781.59;5206001;28;20029;-67
2022/08/20 08:55:31;;;;;;;18.13;13.60;;;;;;;-141.48;100.00;69781.59;5205271;28;20021;-67
2022/08/20 08:58:02;;;;;;;14.25;12.65;;;;;;;-141.48;100.00;69781.59;5224135;28;20025;-68
2022/08/20 09:00:33;;;;;;;17.08;15.30;;;;;;;-141.48;100.00;69781.59;5223853;28;20211;-66
2022/08/20 09:03:16;;;;;;;21.55;13.73;;;;;;;-141.48;100.00;69781.59;5223458;28;20512;-66
2022/08/20 09:05:58;;;;;;;11.48;10.57;;;;;;;-141.48;100.00;69781.59;5223203;28;20106;-67
2022/08/20 09:08:35;;;;;;;12.60;11.30;;;;;;;-141.48;100.00;69781.59;5223708;28;20032;-66
2022/08/20 09:11:07;;;;;;;14.85;11.02;;;;;;;-141.48;100.00;69781.59;5223732;28;20130;-67
2022/08/20 09:13:37;;;;;;;12.10;9.55;;;;;;;-141.48;100.00;69781.59;5204736;28;20067;-68
2022/08/20 09:16:09;;;;;;;8.90;8.27;;;;;;;-141.48;100.00;69781.59;5244045;28;20067;-67
2022/08/20 09:18:40;;;;;;;14.63;8.68;;;;;;;-141.48;100.00;69781.59;5244530;28;20036;-67
2022/08/20 09:21:10;;;;;;;8.55;7.68;;;;;;;-141.48;100.00;69781.59;5245116;28;20506;-67
2022/08/20 09:23:42;;;;;;;15.13;8.60;;;;;;;-141.48;100.00;69781.59;5247458;28;20025;-68
2022/08/20 09:26:12;;;;;;;10.30;6.00;;;;;;;-141.48;100.00;69781.59;5230087;28;20016;-69
2022/08/20 09:28:43;;;;;;;10.57;8.15;;;;;;;-141.48;100.00;69781.59;5247739;28;20452;-68
2022/08/20 09:31:13;;;;;;;14.98;8.65;;;;;;;-141.48;100.00;69781.59;5247353;28;20163;-67
2022/08/20 09:33:43;;;;;;;7.13;6.45;;;;;;;-141.48;100.00;69781.59;5247307;28;20119;-67
2022/08/20 09:36:14;;;;;;;4.43;4.03;;;;;;;-141.48;100.00;69781.59;5247575;28;20020;-68
2022/08/20 09:38:44;;;;;;;3.55;3.33;;;;;;;-141.48;100.00;69781.59;5229188;28;20028;-68
2022/08/20 09:41:15;;;;;;;5.63;3.90;;;;;;;-141.48;100.00;69781.59;5247605;28;20024;-69
2022/08/20 09:43:45;;;;;;;10.07;4.13;;;;;;;-141.48;100.00;69781.59;5243356;28;20017;-70
2022/08/20 09:46:15;;;;;;;8.35;5.22;;;;;;;-141.48;100.00;69781.59;5247560;28;20028;-67
2022/08/20 09:48:46;;;;;;;7.95;5.35;;;;;;;-141.48;100.00;69781.59;5229433;28;20090;-68
2022/08/20 09:51:16;;;;;;;3.50;3.30;;;;;;;-141.48;100.00;69781.59;5229414;28;20050;-66
2022/08/20 09:53:47;;;;;;;7.63;4.65;;;;;;;-141.48;100.00;69781.59;5246956;28;20021;-68
2022/08/20 09:56:18;;;;;;;5.78;5.25;;;;;;;-141.48;100.00;69781.59;5229355;28;20027;-69
2022/08/20 09:58:51;;;;;;;13.02;3.72;;;;;;;-141.48;100.00;69781.59;5229463;28;20450;-67
2022/08/20 10:01:22;;;;;;;11.50;3.33;;;;;;;-141.48;100.00;69781.59;5247367;28;20383;-67
2022/08/20 10:03:52;;;;;;;3.13;2.90;;;;;;;-141.48;100.00;69781.59;5246686;28;20083;-67
2022/08/20 10:06:22;;;;;;;6.75;3.08;;;;;;;-141.48;100.00;69781.59;5229548;28;20074;-69
2022/08/20 10:08:53;;;;;;;4.47;4.15;;;;;;;-141.48;100.00;69781.59;5228991;28;20499;-67
2022/08/20 10:11:23;;;;;;;6.90;3.83;;;;;;;-141.48;100.00;69781.59;5246778;28;20032;-67
2022/08/20 10:13:54;;;;;;;6.22;3.83;;;;;;;-141.48;100.00;69781.59;5246381;28;20028;-66
2022/08/20 10:16:24;;;;;;;7.88;4.28;;;;;;;-141.48;100.00;69781.59;5247054;28;20050;-68
2022/08/20 10:18:55;;;;;;;8.23;4.18;;;;;;;-141.48;100.00;69781.59;5246967;28;20027;-67
2022/08/20 10:21:25;;;;;;;3.92;3.33;;;;;;;-141.48;100.00;69781.59;5246895;28;20070;-67
2022/08/20 10:23:56;;;;;;;10.70;4.85;;;;;;;-141.48;100.00;69781.59;5244700;28;20471;-67
2022/08/20 10:26:27;;;;;;;5.45;4.25;;;;;;;-141.48;100.00;69781.59;5246573;28;20085;-67
2022/08/20 10:28:57;;;;;;;8.32;4.63;;;;;;;-141.48;100.00;69781.59;5246246;28;20024;-68
2022/08/20 10:31:27;;;;;;;8.40;4.57;;;;;;;-141.48;100.00;69781.59;5246470;28;20024;-67
2022/08/20 10:33:58;;;;;;;4.85;3.13;;;;;;;-141.48;100.00;69781.59;5245271;28;20044;-68
2022/08/20 10:36:28;;;;;;;4.72;4.05;;;;;;;-141.48;100.00;69781.59;5246125;28;20020;-68
2022/08/20 10:38:59;;;;;;;7.05;3.03;;;;;;;-141.48;100.00;69781.59;5246012;28;20529;-68
2022/08/20 10:41:29;;;;;;;6.30;4.95;;;;;;;-141.48;100.00;69781.59;5246481;28;20040;-68
2022/08/20 10:43:59;;;;;;;7.55;4.07;;;;;;;-141.48;100.00;69781.59;5245924;28;20472;-67
2022/08/20 10:46:30;;;;;;;7.53;4.68;;;;;;;-141.48;100.00;69781.59;5246300;28;20027;-67
2022/08/20 10:49:00;;;;;;;4.38;4.07;;;;;;;-141.48;100.00;69781.59;5246213;28;20028;-67
2022/08/20 10:51:31;;;;;;;4.60;3.55;;;;;;;-141.48;100.00;69781.59;5245765;28;20384;-68
2022/08/20 10:54:01;;;;;;;8.50;5.18;;;;;;;-141.48;100.00;69781.59;5244874;28;20031;-67
2022/08/20 10:56:32;;;;;;;7.38;4.25;;;;;;;-141.48;100.00;69781.59;5245807;28;20165;-67
2022/08/20 10:59:02;;;;;;;10.70;4.68;;;;;;;-141.48;100.00;69781.59;5245725;28;20039;-67
2022/08/20 11:01:33;;;;;;;4.53;4.07;;;;;;;-141.48;100.00;69781.59;5227748;28;20116;-67
2022/08/20 11:04:03;;;;;;;5.50;5.05;;;;;;;-141.48;100.00;69781.59;5244836;28;20016;-67
2022/08/20 11:06:34;;;;;;;4.72;4.20;;;;;;;-141.48;100.00;69781.59;5245934;28;20020;-67
2022/08/20 11:09:04;;;;;;;4.40;4.10;;;;;;;-141.48;100.00;69781.59;5245846;28;20021;-67
2022/08/20 11:11:35;;;;;;;4.95;3.88;;;;;;;-141.48;100.00;69781.59;5245728;28;20024;-67
2022/08/20 11:14:05;;;;;;;6.75;3.63;;;;;;;-141.48;100.00;69781.59;5245525;28;20021;-67
2022/08/20 11:16:36;;;;;;;2.80;2.70;;;;;;;-141.48;100.00;69781.59;5245451;28;20074;-67
2022/08/20 11:19:06;;;;;;;3.88;2.88;;;;;;;-141.48;100.00;69781.59;5227626;28;20395;-67
2022/08/20 11:21:37;;;;;;;8.00;4.57;;;;;;;-141.48;100.00;69781.59;5245135;28;20548;-67
2022/08/20 11:24:07;;;;;;;4.90;3.83;;;;;;;-141.48;100.00;69781.59;5245097;28;20046;-67
2022/08/20 11:26:37;;;;;;;17.80;5.20;;;;;;;-141.48;100.00;69781.59;5245579;28;20091;-67
2022/08/20 11:29:08;;;;;;;4.80;4.03;;;;;;;-141.48;100.00;69781.59;5245255;28;20032;-67
2022/08/20 11:31:38;;;;;;;15.68;4.03;;;;;;;-141.48;100.00;69781.59;5245329;28;20029;-68
2022/08/20 11:34:09;;;;;;;9.85;4.88;;;;;;;-141.48;100.00;69781.59;5244713;28;20503;-68